Time;durP1;ratioP1;P1;durP2;ratioP2;P2;SDS_P1;SDS_P2;PMS_P1;PMS_P2;Temp;Humidity;BMP_temperature;BMP_pressure;BME280_temperature;BME280_humidity;BME280_pressure;Samples;Min_cycle;Max_cycle;Signal;HPM_P1;HPM_P2
2021/01/26 00:00:50;;;;;;;11.77;10.67;;;;;21.60;99843.00;;;;2078820;28;20210;-52
2021/01/26 00:01:50;;;;;;;11.20;10.10;;;;;21.50;99846.00;;;;2078810;28;20224;-52
2021/01/26 00:02:51;;;;;;;12.57;10.20;;;;;21.50;99836.00;;;;2078414;28;20563;-51
2021/01/26 00:03:51;;;;;;;11.43;9.93;;;;;21.50;99842.00;;;;2078858;28;20263;-51
2021/01/26 00:04:52;;;;;;;10.63;9.60;;;;;21.50;99841.00;;;;2077649;28;20232;-51
2021/01/26 00:05:52;;;;;;;10.23;9.33;;;;;21.50;99842.00;;;;2078363;28;20218;-51
2021/01/26 00:06:53;;;;;;;11.87;9.77;;;;;21.50;99851.00;;;;2071013;28;20219;-51
2021/01/26 00:07:53;;;;;;;10.30;9.20;;;;;21.50;99846.00;;;;2070589;28;20222;-51
2021/01/26 00:08:53;;;;;;;10.80;9.70;;;;;21.50;99832.00;;;;2070686;28;20482;-52
2021/01/26 00:09:54;;;;;;;11.50;9.67;;;;;21.50;99842.00;;;;2070335;28;20683;-51
2021/01/26 00:10:54;;;;;;;10.00;9.10;;;;;21.50;99833.00;;;;2070559;28;20647;-51
2021/01/26 00:11:54;;;;;;;9.40;8.53;;;;;21.50;99837.00;;;;2069048;28;20238;-51
2021/01/26 00:12:55;;;;;;;9.60;8.70;;;;;21.50;99832.00;;;;2067698;28;20892;-51
2021/01/26 00:13:55;;;;;;;10.00;8.73;;;;;21.40;99832.00;;;;2069488;28;20568;-51
2021/01/26 00:14:55;;;;;;;10.53;9.30;;;;;21.40;99834.00;;;;2069071;28;20226;-52
2021/01/26 00:15:56;;;;;;;9.63;8.63;;;;;21.40;99845.00;;;;2074362;28;20218;-51
2021/01/26 00:16:56;;;;;;;9.03;8.20;;;;;21.40;99833.00;;;;2077706;28;20221;-51
2021/01/26 00:17:56;;;;;;;9.40;8.50;;;;;21.40;99845.00;;;;2077887;28;20615;-52
2021/01/26 00:18:57;;;;;;;10.30;9.30;;;;;21.40;99842.00;;;;2077961;28;20863;-50
2021/01/26 00:19:57;;;;;;;8.93;8.13;;;;;21.30;99841.00;;;;2078310;28;20878;-52
2021/01/26 00:20:57;;;;;;;9.20;8.30;;;;;21.30;99838.00;;;;2076845;28;20214;-56
2021/01/26 00:21:58;;;;;;;9.03;8.13;;;;;21.30;99843.00;;;;2066734;28;20226;-52
2021/01/26 00:22:58;;;;;;;9.20;8.30;;;;;21.30;99853.00;;;;2077552;28;20578;-52
2021/01/26 00:23:59;;;;;;;9.13;7.50;;;;;21.30;99846.00;;;;2076420;28;20218;-52
2021/01/26 00:24:59;;;;;;;8.57;7.83;;;;;21.30;99845.00;;;;2077483;28;20325;-53
2021/01/26 00:25:59;;;;;;;9.50;7.90;;;;;21.30;99840.00;;;;2078033;28;20264;-52
2021/01/26 00:27:00;;;;;;;8.27;7.47;;;;;21.30;99837.00;;;;2078539;28;20222;-51
2021/01/26 00:28:00;;;;;;;8.37;7.43;;;;;21.30;99845.00;;;;2078521;28;20251;-52
2021/01/26 00:29:00;;;;;;;8.73;7.93;;;;;21.30;99845.00;;;;2078710;28;20260;-52
2021/01/26 00:30:03;;;;;;;10.77;8.37;;;;;21.30;99848.00;;;;2078394;28;20218;-51
2021/01/26 00:31:03;;;;;;;8.80;7.90;;;;;21.20;99856.00;;;;2078658;28;20217;-51
2021/01/26 00:32:04;;;;;;;9.93;7.43;;;;;21.20;99847.00;;;;2078492;28;20217;-51
2021/01/26 00:33:06;;;;;;;8.43;7.63;;;;;21.20;99841.00;;;;2078778;28;20210;-52
2021/01/26 00:34:07;;;;;;;8.05;7.20;;;;;21.20;99842.00;;;;2077839;28;20213;-51
2021/01/26 00:35:08;;;;;;;8.40;7.60;;;;;21.20;99848.00;;;;2078658;28;20784;-51
2021/01/26 00:36:09;;;;;;;8.55;7.65;;;;;21.20;99846.00;;;;2078270;28;20214;-51
2021/01/26 00:37:09;;;;;;;8.83;7.93;;;;;21.20;99852.00;;;;2078659;28;20229;-51
2021/01/26 00:38:10;;;;;;;7.73;7.03;;;;;21.20;99850.00;;;;2078346;28;20304;-51
2021/01/26 00:39:10;;;;;;;7.53;6.77;;;;;21.20;99852.00;;;;2078470;28;20210;-51
2021/01/26 00:40:11;;;;;;;8.00;7.30;;;;;21.20;99843.00;;;;2078587;28;20233;-51
2021/01/26 00:41:12;;;;;;;7.78;7.07;;;;;21.20;99833.00;;;;2078473;28;20218;-51
2021/01/26 00:42:12;;;;;;;7.90;7.10;;;;;21.20;99833.00;;;;2076798;28;20798;-51
2021/01/26 00:43:12;;;;;;;8.70;7.43;;;;;21.20;99841.00;;;;2078630;28;20635;-52
2021/01/26 00:44:13;;;;;;;8.17;7.47;;;;;21.10;99844.00;;;;2077587;28;20214;-52
2021/01/26 00:45:14;;;;;;;8.60;7.63;;;;;21.10;99836.00;;;;2078433;28;20626;-51
2021/01/26 00:46:14;;;;;;;8.75;7.13;;;;;21.10;99841.00;;;;2078588;28;20701;-51
2021/01/26 00:47:15;;;;;;;7.40;6.70;;;;;21.10;99852.00;;;;2079834;28;20221;-51
2021/01/26 00:48:15;;;;;;;7.93;7.20;;;;;21.10;99848.00;;;;2080274;28;20275;-52
2021/01/26 00:49:15;;;;;;;8.23;7.40;;;;;21.10;99837.00;;;;2080283;28;20209;-51
2021/01/26 00:50:16;;;;;;;8.50;7.40;;;;;21.10;99842.00;;;;2080346;28;20682;-51
2021/01/26 00:51:17;;;;;;;8.15;7.03;;;;;21.10;99845.00;;;;2079992;28;20228;-51
2021/01/26 00:52:17;;;;;;;7.90;7.00;;;;;21.10;99840.00;;;;2079867;28;20241;-51
2021/01/26 00:53:17;;;;;;;6.87;6.27;;;;;21.00;99837.00;;;;2080213;28;20279;-51
2021/01/26 00:54:18;;;;;;;7.63;6.90;;;;;21.00;99840.00;;;;2078662;28;20301;-51
2021/01/26 00:55:20;;;;;;;7.53;6.63;;;;;21.00;99847.00;;;;2080028;28;20289;-52
2021/01/26 00:56:20;;;;;;;7.85;7.07;;;;;21.00;99844.00;;;;2080002;28;20574;-51
2021/01/26 00:57:21;;;;;;;8.40;6.70;;;;;21.00;99857.00;;;;2080040;28;20232;-51
2021/01/26 00:58:21;;;;;;;7.33;6.63;;;;;21.00;99856.00;;;;2080182;28;20226;-51
2021/01/26 00:59:21;;;;;;;7.20;6.47;;;;;21.00;99860.00;;;;2080240;28;20257;-51
2021/01/26 01:00:27;;;;;;;8.20;7.10;;;;;21.00;99853.00;;;;2080209;28;20300;-51
2021/01/26 01:01:28;;;;;;;7.45;6.57;;;;;21.00;99851.00;;;;2079960;28;20575;-51
2021/01/26 01:02:28;;;;;;;7.37;6.67;;;;;21.00;99850.00;;;;2080001;28;20220;-51
2021/01/26 01:03:28;;;;;;;7.20;6.57;;;;;21.00;99864.00;;;;2080242;28;20214;-51
2021/01/26 01:04:29;;;;;;;6.77;6.10;;;;;21.00;99854.00;;;;2078845;28;20214;-51
2021/01/26 01:05:29;;;;;;;7.27;6.60;;;;;21.00;99854.00;;;;2080061;28;20328;-51
2021/01/26 01:06:29;;;;;;;6.80;6.23;;;;;20.90;99862.00;;;;2080200;28;20583;-51
2021/01/26 01:07:30;;;;;;;9.10;6.50;;;;;20.90;99857.00;;;;2079619;28;20232;-52
2021/01/26 01:08:30;;;;;;;7.00;6.10;;;;;20.90;99853.00;;;;2080129;28;20689;-51
2021/01/26 01:09:30;;;;;;;7.07;6.40;;;;;20.90;99862.00;;;;2080111;28;20694;-51
2021/01/26 01:10:32;;;;;;;7.70;6.90;;;;;20.90;99866.00;;;;2079908;28;20591;-51
2021/01/26 01:11:33;;;;;;;6.50;5.90;;;;;20.90;99865.00;;;;2071651;28;20329;-52
2021/01/26 01:12:33;;;;;;;6.13;5.60;;;;;20.90;99860.00;;;;2080127;28;20206;-55
2021/01/26 01:13:33;;;;;;;7.20;5.77;;;;;20.90;99856.00;;;;2075940;28;20586;-53
2021/01/26 01:14:34;;;;;;;9.00;5.93;;;;;20.90;99868.00;;;;2079289;28;20210;-52
2021/01/26 01:15:34;;;;;;;6.20;5.70;;;;;20.90;99858.00;;;;2080125;28;20210;-52
2021/01/26 01:16:34;;;;;;;7.10;6.37;;;;;20.90;99857.00;;;;2080105;28;20233;-53
2021/01/26 01:17:35;;;;;;;7.10;6.50;;;;;20.90;99848.00;;;;2080156;28;20738;-52
2021/01/26 01:18:35;;;;;;;6.30;5.70;;;;;20.90;99856.00;;;;2079778;28;20587;-51
2021/01/26 01:19:35;;;;;;;8.67;6.20;;;;;20.80;99854.00;;;;2080123;28;20237;-52
2021/01/26 01:20:36;;;;;;;5.97;5.37;;;;;20.80;99849.00;;;;2079763;28;20217;-52
2021/01/26 01:21:36;;;;;;;6.83;6.23;;;;;20.80;99849.00;;;;2079219;28;20226;-51
2021/01/26 01:22:36;;;;;;;6.27;5.67;;;;;20.80;99842.00;;;;2079610;28;20768;-52
2021/01/26 01:23:37;;;;;;;6.80;5.77;;;;;20.80;99852.00;;;;2080211;28;20214;-52
2021/01/26 01:24:37;;;;;;;6.20;5.60;;;;;20.80;99840.00;;;;2078626;28;20244;-54
2021/01/26 01:25:37;;;;;;;5.97;5.33;;;;;20.80;99851.00;;;;2079650;28;20218;-52
2021/01/26 01:26:38;;;;;;;6.50;5.90;;;;;20.80;99841.00;;;;2079951;28;20214;-51
2021/01/26 01:27:38;;;;;;;6.13;5.53;;;;;20.80;99849.00;;;;2079949;28;20215;-51
2021/01/26 01:28:39;;;;;;;6.10;5.50;;;;;20.80;99853.00;;;;2079885;28;20210;-52
2021/01/26 01:29:39;;;;;;;6.10;5.50;;;;;20.60;99849.00;;;;2080063;28;20210;-51
2021/01/26 01:30:39;;;;;;;6.20;5.60;;;;;20.70;99852.00;;;;2079572;28;20210;-52
2021/01/26 01:31:40;;;;;;;6.20;5.60;;;;;20.70;99847.00;;;;2079624;28;20207;-52
2021/01/26 01:32:40;;;;;;;5.63;5.13;;;;;20.80;99845.00;;;;2079905;28;20205;-51
2021/01/26 01:33:40;;;;;;;5.90;5.30;;;;;20.70;99857.00;;;;2079641;28;20216;-51
2021/01/26 01:34:41;;;;;;;6.67;5.97;;;;;20.70;99848.00;;;;2079069;28;20221;-51
2021/01/26 01:35:42;;;;;;;5.95;5.40;;;;;20.50;99849.00;;;;2079593;28;20694;-51
2021/01/26 01:36:42;;;;;;;6.23;5.60;;;;;20.70;99864.00;;;;2079767;28;20214;-51
2021/01/26 01:37:42;;;;;;;5.40;4.90;;;;;20.70;99845.00;;;;2080154;28;20206;-51
2021/01/26 01:38:43;;;;;;;6.60;5.93;;;;;20.70;99852.00;;;;2079925;28;20202;-51
2021/01/26 01:39:43;;;;;;;5.97;4.97;;;;;20.70;99851.00;;;;2079738;28;20567;-51
2021/01/26 01:40:43;;;;;;;5.97;5.37;;;;;20.70;99849.00;;;;2079603;28;20214;-52
2021/01/26 01:41:44;;;;;;;5.80;5.20;;;;;20.70;99854.00;;;;2079638;28;20213;-51
2021/01/26 01:42:46;;;;;;;6.37;4.70;;;;;20.70;99847.00;;;;2079895;28;20206;-52
2021/01/26 01:43:50;;;;;;;5.68;4.95;;;;;20.60;99847.00;;;;2079798;28;20276;-51
2021/01/26 01:44:50;;;;;;;5.97;5.22;;;;;20.60;99801.00;;;;2078959;28;20295;-51
2021/01/26 01:45:51;;;;;;;5.50;5.00;;;;;20.60;99850.00;;;;2079818;28;20583;-51
2021/01/26 01:46:55;;;;;;;7.47;5.70;;;;;20.60;99858.00;;;;2079254;28;20214;-52
2021/01/26 01:48:06;;;;;;;6.07;5.47;;;;;20.60;99861.00;;;;2078918;28;20214;-51
2021/01/26 01:49:07;;;;;;;7.47;5.60;;;;;20.60;99864.00;;;;2072569;28;20252;-51
2021/01/26 01:50:10;;;;;;;6.03;5.40;;;;;20.60;99856.00;;;;2062394;28;20234;-56
2021/01/26 01:51:13;;;;;;;6.00;5.40;;;;;20.60;99866.00;;;;2057683;28;20212;-52
2021/01/26 01:52:18;;;;;;;6.20;4.80;;;;;20.60;99853.00;;;;2080688;28;20263;-51
2021/01/26 01:53:27;;;;;;;6.88;5.60;;;;;20.60;99872.00;;;;2079345;28;20210;-51
2021/01/26 01:54:30;;;;;;;6.65;5.82;;;;;20.60;99871.00;;;;2077630;28;20218;-52
2021/01/26 01:55:31;;;;;;;6.57;5.82;;;;;20.50;99859.00;;;;2068044;28;20334;-51
2021/01/26 01:56:44;;;;;;;6.25;5.65;;;;;20.60;99869.00;;;;2066043;28;20226;-51
2021/01/26 01:57:52;;;;;;;6.05;5.43;;;;;20.60;99865.00;;;;2072025;28;20215;-52
2021/01/26 01:58:56;;;;;;;6.70;5.32;;;;;20.60;99862.00;;;;2064031;28;20299;-51
2021/01/26 01:59:58;;;;;;;6.50;5.90;;;;;20.60;99860.00;;;;2057607;28;20247;-51
2021/01/26 02:01:04;;;;;;;6.25;5.63;;;;;20.50;99876.00;;;;2069083;28;20226;-51
2021/01/26 02:02:04;;;;;;;6.50;6.00;;;;;20.60;99872.00;;;;2078739;28;20241;-51
2021/01/26 02:03:26;;;;;;;5.93;5.43;;;;;20.50;99870.00;;;;2078486;28;20217;-51
2021/01/26 02:04:26;;;;;;;6.55;5.90;;;;;20.50;99874.00;;;;2081053;28;20264;-51
2021/01/26 02:05:26;;;;;;;6.37;5.77;;;;;20.50;99884.00;;;;2071052;28;20348;-51
2021/01/26 02:06:29;;;;;;;6.20;5.50;;;;;20.50;99883.00;;;;2070729;28;20293;-51
2021/01/26 02:07:30;;;;;;;6.47;5.60;;;;;20.50;99873.00;;;;2070950;28;20222;-51
2021/01/26 02:08:53;;;;;;;6.30;5.50;;;;;20.50;99870.00;;;;2069470;28;20218;-51
2021/01/26 02:09:54;;;;;;;6.40;5.35;;;;;20.50;99872.00;;;;2070535;28;20457;-51
2021/01/26 02:10:54;;;;;;;6.00;5.20;;;;;20.50;99871.00;;;;2071148;28;20270;-51
2021/01/26 02:11:54;;;;;;;5.87;5.30;;;;;20.50;99876.00;;;;2081820;28;20430;-50
2021/01/26 02:12:55;;;;;;;5.77;5.17;;;;;20.50;99873.00;;;;2079703;28;20217;-51
2021/01/26 02:13:55;;;;;;;6.73;5.80;;;;;20.50;99882.00;;;;2079739;28;20221;-52
2021/01/26 02:14:56;;;;;;;6.83;6.00;;;;;20.50;99880.00;;;;2078612;28;20990;-51
2021/01/26 02:15:59;;;;;;;6.17;5.57;;;;;20.50;99883.00;;;;2078762;28;20220;-51
2021/01/26 02:17:08;;;;;;;5.85;5.35;;;;;20.40;99882.00;;;;2078883;28;20605;-51
2021/01/26 02:18:11;;;;;;;6.30;5.55;;;;;20.40;99881.00;;;;2067243;28;20227;-51
2021/01/26 02:19:33;;;;;;;5.85;5.28;;;;;20.40;99885.00;;;;2075538;28;20214;-52
2021/01/26 02:21:01;;;;;;;6.90;5.22;;;;;20.40;99880.00;;;;2079382;28;20213;-51
2021/01/26 02:22:17;;;;;;;5.18;4.68;;;;;20.40;99890.00;;;;2079191;28;20635;-51
2021/01/26 02:23:40;;;;;;;7.05;5.88;;;;;20.30;99882.00;;;;2078870;28;20245;-51
2021/01/26 02:25:09;;;;;;;6.80;5.32;;;;;20.40;99891.00;;;;2078149;28;20221;-52
2021/01/26 02:26:24;;;;;;;6.65;5.53;;;;;20.40;99892.00;;;;2065755;28;20219;-51
2021/01/26 02:27:34;;;;;;;5.68;5.05;;;;;20.40;99891.00;;;;2065423;28;20219;-51
2021/01/26 02:28:53;;;;;;;5.88;5.28;;;;;20.40;99877.00;;;;2071252;28;20230;-51
2021/01/26 02:30:26;;;;;;;7.15;5.82;;;;;20.40;99893.00;;;;2078237;28;20711;-51
2021/01/26 02:31:36;;;;;;;6.53;5.60;;;;;20.40;99889.00;;;;2077765;28;20244;-51
2021/01/26 02:32:36;;;;;;;6.82;5.10;;;;;20.40;99887.00;;;;2077792;28;20218;-51
2021/01/26 02:33:58;;;;;;;6.10;5.30;;;;;20.30;99884.00;;;;2078692;28;20213;-51
2021/01/26 02:35:13;;;;;;;7.85;6.05;;;;;20.40;99890.00;;;;2078709;28;20210;-51
2021/01/26 02:36:25;;;;;;;6.40;5.50;;;;;20.40;99887.00;;;;2079179;28;20270;-51
2021/01/26 02:37:52;;;;;;;6.30;4.57;;;;;20.40;99888.00;;;;2078724;28;20734;-51
2021/01/26 02:39:19;;;;;;;5.93;5.07;;;;;20.30;99885.00;;;;2078686;28;20218;-51
2021/01/26 02:40:44;;;;;;;5.32;4.85;;;;;20.30;99901.00;;;;2078188;28;20217;-52
2021/01/26 02:41:53;;;;;;;6.57;4.85;;;;;20.30;99895.00;;;;2066311;28;20670;-52
2021/01/26 02:43:19;;;;;;;6.13;4.90;;;;;20.30;99889.00;;;;2070093;28;20219;-51
2021/01/26 02:44:26;;;;;;;6.55;5.10;;;;;20.30;99908.00;;;;2071869;28;20256;-51
2021/01/26 02:45:43;;;;;;;5.70;4.85;;;;;20.30;99901.00;;;;2065588;28;20309;-51
2021/01/26 02:46:48;;;;;;;5.30;4.70;;;;;20.30;99891.00;;;;2077788;28;20563;-52
2021/01/26 02:48:25;;;;;;;5.00;4.50;;;;;20.30;99901.00;;;;2071254;28;20233;-52
2021/01/26 02:49:29;;;;;;;5.43;4.85;;;;;20.30;99899.00;;;;2074235;28;20203;-51
2021/01/26 02:50:35;;;;;;;6.35;5.25;;;;;20.30;99903.00;;;;2078810;28;20213;-51
2021/01/26 02:52:00;;;;;;;5.95;4.88;;;;;20.30;99904.00;;;;2079336;28;20321;-51
2021/01/26 02:53:42;;;;;;;6.00;4.40;;;;;20.20;99899.00;;;;2079165;28;20256;-51
2021/01/26 02:54:50;;;;;;;5.47;4.65;;;;;20.20;99918.00;;;;2068135;28;20225;-51
2021/01/26 02:56:09;;;;;;;7.45;4.72;;;;;20.20;99893.00;;;;2069728;28;20596;-51
2021/01/26 02:57:41;;;;;;;5.80;4.70;;;;;20.20;99897.00;;;;2075804;28;20679;-51
2021/01/26 02:58:51;;;;;;;5.05;4.13;;;;;20.20;99897.00;;;;2053584;28;20224;-51
2021/01/26 03:00:04;;;;;;;5.35;4.82;;;;;20.20;99900.00;;;;2067413;28;20214;-52
2021/01/26 03:01:05;;;;;;;4.90;4.25;;;;;20.20;99910.00;;;;2067792;28;20226;-51
2021/01/26 03:02:24;;;;;;;8.50;4.17;;;;;20.20;99902.00;;;;2067080;28;20210;-51
2021/01/26 03:03:36;;;;;;;4.80;4.32;;;;;20.20;99903.00;;;;2070684;28;20272;-51
2021/01/26 03:04:42;;;;;;;5.70;4.22;;;;;20.10;99902.00;;;;2062680;28;20277;-51
2021/01/26 03:05:45;;;;;;;5.72;3.67;;;;;20.20;99908.00;;;;2070375;28;20219;-51
2021/01/26 03:06:48;;;;;;;6.40;3.83;;;;;20.20;99919.00;;;;2078085;28;20691;-51
2021/01/26 03:07:55;;;;;;;5.90;4.22;;;;;20.20;99927.00;;;;2060220;28;20266;-51
2021/01/26 03:09:01;;;;;;;5.43;3.60;;;;;20.20;99921.00;;;;2057641;28;20215;-51
2021/01/26 03:10:06;;;;;;;4.80;3.97;;;;;20.20;99914.00;;;;2071324;28;20245;-51
2021/01/26 03:11:32;;;;;;;5.05;3.60;;;;;20.10;99907.00;;;;2073726;28;20245;-51
2021/01/26 03:12:34;;;;;;;5.50;3.90;;;;;20.10;99918.00;;;;2069740;28;20219;-51
2021/01/26 03:13:35;;;;;;;6.13;3.90;;;;;20.10;99910.00;;;;2073140;28;20217;-51
2021/01/26 03:14:41;;;;;;;6.60;4.03;;;;;20.10;99913.00;;;;2077468;28;20210;-51
2021/01/26 03:15:55;;;;;;;5.65;4.15;;;;;20.10;99916.00;;;;2078193;28;20460;-51
2021/01/26 03:17:19;;;;;;;4.43;3.58;;;;;20.10;99908.00;;;;2063516;28;20606;-51
2021/01/26 03:18:21;;;;;;;4.28;3.35;;;;;20.10;99925.00;;;;2065931;28;20267;-51
2021/01/26 03:19:23;;;;;;;6.07;3.97;;;;;20.10;99929.00;;;;2066416;28;20214;-52
2021/01/26 03:20:37;;;;;;;4.85;3.30;;;;;20.10;99930.00;;;;2069020;28;20210;-52
2021/01/26 03:21:38;;;;;;;4.57;3.95;;;;;20.10;99920.00;;;;2065739;28;20253;-51
2021/01/26 03:22:38;;;;;;;4.70;3.77;;;;;20.10;99916.00;;;;2068978;28;20711;-51
2021/01/26 03:23:41;;;;;;;3.77;3.40;;;;;20.10;99919.00;;;;2077871;28;20449;-51
2021/01/26 03:24:42;;;;;;;6.57;3.88;;;;;20.10;99930.00;;;;2068211;28;20222;-51
2021/01/26 03:25:47;;;;;;;3.80;3.27;;;;;20.10;99920.00;;;;2061068;28;20301;-51
2021/01/26 03:26:47;;;;;;;6.00;3.10;;;;;20.10;99924.00;;;;2062217;28;20655;-51
2021/01/26 03:27:48;;;;;;;6.53;3.90;;;;;20.10;99926.00;;;;2059749;28;20226;-51
2021/01/26 03:28:49;;;;;;;4.30;3.50;;;;;20.00;99928.00;;;;2056835;28;20235;-54
2021/01/26 03:29:51;;;;;;;5.38;3.35;;;;;20.10;99934.00;;;;2053669;28;20684;-52
2021/01/26 03:30:52;;;;;;;4.60;3.20;;;;;20.00;99938.00;;;;2057946;28;20566;-51
2021/01/26 03:31:52;;;;;;;4.55;2.70;;;;;20.00;99925.00;;;;2053760;28;20220;-51
2021/01/26 03:32:56;;;;;;;5.17;3.10;;;;;20.00;99937.00;;;;2062181;28;20242;-51
2021/01/26 03:33:57;;;;;;;6.10;3.65;;;;;20.00;99945.00;;;;2080671;28;20217;-51
2021/01/26 03:34:57;;;;;;;3.27;2.97;;;;;20.00;99946.00;;;;2085514;28;20244;-51
2021/01/26 03:35:58;;;;;;;4.20;2.97;;;;;20.00;99940.00;;;;2072770;28;20284;-51
2021/01/26 03:36:58;;;;;;;4.97;3.10;;;;;20.00;99942.00;;;;2070104;28;20241;-51
2021/01/26 03:38:08;;;;;;;4.40;2.73;;;;;20.00;99945.00;;;;2070219;28;20229;-51
2021/01/26 03:39:09;;;;;;;5.00;3.38;;;;;20.00;99956.00;;;;2070158;28;20222;-51
2021/01/26 03:40:09;;;;;;;3.33;3.03;;;;;20.00;99950.00;;;;2070097;28;20229;-51
2021/01/26 03:41:10;;;;;;;3.60;2.70;;;;;20.00;99945.00;;;;2070062;28;20248;-51
2021/01/26 03:42:10;;;;;;;5.00;3.00;;;;;20.00;99959.00;;;;2070112;28;20782;-51
2021/01/26 03:43:10;;;;;;;6.47;3.50;;;;;20.00;99941.00;;;;2070519;28;20215;-51
2021/01/26 03:44:11;;;;;;;4.67;3.07;;;;;20.00;99948.00;;;;2069656;28;20210;-51
2021/01/26 03:45:11;;;;;;;5.67;3.07;;;;;19.80;99949.00;;;;2069926;28;20222;-51
2021/01/26 03:46:47;;;;;;;3.63;2.77;;;;;20.00;99942.00;;;;2069813;28;20634;-51
2021/01/26 03:48:27;;;;;;;3.92;2.90;;;;;20.00;99955.00;;;;2065061;28;20236;-51
2021/01/26 03:49:37;;;;;;;4.18;2.80;;;;;20.00;99962.00;;;;2076655;28;20300;-51
2021/01/26 03:50:45;;;;;;;4.75;2.97;;;;;19.90;99945.00;;;;2078114;28;20225;-51
2021/01/26 03:52:04;;;;;;;3.28;2.70;;;;;19.90;99954.00;;;;2077805;28;20305;-51
2021/01/26 03:53:16;;;;;;;4.05;2.80;;;;;20.00;99952.00;;;;2078073;28;20319;-51
2021/01/26 03:54:28;;;;;;;4.70;2.80;;;;;20.00;99960.00;;;;2077469;28;20210;-51
2021/01/26 03:55:36;;;;;;;3.95;2.45;;;;;19.90;99955.00;;;;2060468;28;20220;-51
2021/01/26 03:57:14;;;;;;;3.10;2.25;;;;;19.90;99953.00;;;;2064452;28;20695;-51
2021/01/26 03:58:34;;;;;;;4.65;2.58;;;;;19.90;99952.00;;;;2059541;28;20253;-51
2021/01/26 03:59:53;;;;;;;3.97;2.67;;;;;19.90;99955.00;;;;2065967;28;20214;-51
2021/01/26 04:01:07;;;;;;;2.80;2.20;;;;;19.90;99957.00;;;;2073654;28;20233;-52
2021/01/26 04:02:53;;;;;;;6.40;2.75;;;;;19.90;99957.00;;;;2077815;28;20208;-51
2021/01/26 04:03:58;;;;;;;5.00;2.75;;;;;19.90;99962.00;;;;2062357;28;20217;-51
2021/01/26 04:04:58;;;;;;;4.68;2.97;;;;;19.90;99971.00;;;;2076982;28;20214;-51
2021/01/26 04:06:11;;;;;;;6.23;2.90;;;;;19.90;99961.00;;;;2078145;28;21010;-51
2021/01/26 04:07:17;;;;;;;4.38;2.55;;;;;19.90;99958.00;;;;2078612;28;20218;-51
2021/01/26 04:08:20;;;;;;;5.05;2.50;;;;;19.70;99955.00;;;;2077948;28;20615;-51
2021/01/26 04:09:25;;;;;;;3.85;2.50;;;;;19.90;99963.00;;;;2077716;28;20631;-51
2021/01/26 04:10:26;;;;;;;4.95;2.63;;;;;19.90;99952.00;;;;2069404;28;20221;-51
2021/01/26 04:11:30;;;;;;;5.30;3.33;;;;;19.90;99957.00;;;;2077966;28;20205;-51
2021/01/26 04:12:32;;;;;;;4.85;3.00;;;;;19.90;99968.00;;;;2070366;28;20722;-51
2021/01/26 04:13:40;;;;;;;5.75;2.65;;;;;19.80;99966.00;;;;2061719;28;20218;-51
2021/01/26 04:14:47;;;;;;;3.33;2.45;;;;;19.80;99971.00;;;;2059428;28;21017;-51
2021/01/26 04:15:50;;;;;;;4.25;2.90;;;;;19.90;99964.00;;;;2063466;28;20219;-51
2021/01/26 04:17:01;;;;;;;3.47;2.70;;;;;19.90;99973.00;;;;2066310;28;20650;-51
2021/01/26 04:18:02;;;;;;;3.53;2.40;;;;;19.80;99968.00;;;;2069825;28;20218;-51
2021/01/26 04:19:02;;;;;;;4.27;2.70;;;;;19.80;99970.00;;;;2071022;28;20280;-51
2021/01/26 04:20:11;;;;;;;4.70;2.57;;;;;19.80;99979.00;;;;2077565;28;20228;-51
2021/01/26 04:21:12;;;;;;;4.65;2.50;;;;;19.80;99973.00;;;;2077963;28;20701;-51
2021/01/26 04:22:12;;;;;;;4.00;2.70;;;;;19.80;99977.00;;;;2069647;28;20293;-51
2021/01/26 04:23:12;;;;;;;3.43;2.13;;;;;19.80;99978.00;;;;2054752;28;20215;-51
2021/01/26 04:24:13;;;;;;;3.67;2.63;;;;;19.70;99972.00;;;;2068947;28;20236;-51
2021/01/26 04:25:25;;;;;;;3.10;2.30;;;;;19.80;99977.00;;;;2077037;28;20225;-51
2021/01/26 04:26:26;;;;;;;5.43;2.50;;;;;19.80;99975.00;;;;2078397;28;20278;-51
2021/01/26 04:27:26;;;;;;;4.80;2.80;;;;;19.80;99977.00;;;;2077892;28;20319;-52
2021/01/26 04:28:40;;;;;;;2.70;2.17;;;;;19.80;99978.00;;;;2077928;28;20468;-51
2021/01/26 04:29:40;;;;;;;3.30;2.15;;;;;19.80;99974.00;;;;2077154;28;20230;-52
2021/01/26 04:30:41;;;;;;;3.20;2.40;;;;;19.80;99980.00;;;;2078350;28;20302;-52
2021/01/26 04:31:41;;;;;;;3.23;2.63;;;;;19.80;99981.00;;;;2078594;28;20292;-51
2021/01/26 04:32:41;;;;;;;6.13;2.60;;;;;19.80;99990.00;;;;2078165;28;20209;-54
2021/01/26 04:33:42;;;;;;;3.70;1.97;;;;;19.80;99980.00;;;;2069774;28;20214;-51
2021/01/26 04:34:42;;;;;;;5.43;2.20;;;;;19.80;99985.00;;;;2068908;28;20249;-51
2021/01/26 04:35:43;;;;;;;3.97;2.33;;;;;19.80;99981.00;;;;2071580;28;20214;-51
2021/01/26 04:36:43;;;;;;;2.97;2.00;;;;;19.80;99989.00;;;;2077768;28;20289;-52
2021/01/26 04:37:43;;;;;;;3.93;2.17;;;;;19.80;99985.00;;;;2077921;28;20210;-51
2021/01/26 04:38:44;;;;;;;4.37;2.50;;;;;19.80;99982.00;;;;2078658;28;20217;-51
2021/01/26 04:39:44;;;;;;;5.10;2.57;;;;;19.80;99990.00;;;;2078633;28;20698;-51
2021/01/26 04:40:45;;;;;;;5.53;2.80;;;;;19.80;99986.00;;;;2078648;28;20562;-51
2021/01/26 04:41:52;;;;;;;4.57;2.38;;;;;19.70;99990.00;;;;2078182;28;20318;-51
2021/01/26 04:42:57;;;;;;;5.40;2.60;;;;;19.80;99989.00;;;;2077284;28;20224;-51
2021/01/26 04:44:11;;;;;;;3.13;2.10;;;;;19.70;99998.00;;;;2077553;28;20222;-53
2021/01/26 04:45:18;;;;;;;3.85;2.40;;;;;19.80;100008.00;;;;2065773;28;20222;-52
2021/01/26 04:46:24;;;;;;;2.83;2.40;;;;;19.70;100001.00;;;;2061261;28;20223;-51
2021/01/26 04:47:34;;;;;;;5.18;2.30;;;;;19.80;99999.00;;;;2063027;28;20595;-52
2021/01/26 04:49:00;;;;;;;2.95;2.00;;;;;19.70;100018.00;;;;2072584;28;20233;-51
2021/01/26 04:50:15;;;;;;;4.22;2.25;;;;;19.70;100014.00;;;;2067135;28;20547;-51
2021/01/26 04:51:22;;;;;;;4.97;2.10;;;;;19.70;100007.00;;;;2071611;28;20634;-51
2021/01/26 04:52:31;;;;;;;3.40;2.05;;;;;19.70;100004.00;;;;2057577;28;20291;-51
2021/01/26 04:54:01;;;;;;;4.40;2.38;;;;;19.60;100007.00;;;;2066138;28;20214;-51
2021/01/26 04:55:20;;;;;;;3.90;2.00;;;;;19.70;100012.00;;;;2072744;28;20228;-52
2021/01/26 04:56:33;;;;;;;4.28;2.22;;;;;19.70;100018.00;;;;2073610;28;20216;-51
2021/01/26 04:57:56;;;;;;;3.35;1.80;;;;;19.70;100009.00;;;;2077755;28;20205;-52
2021/01/26 04:59:40;;;;;;;2.90;1.90;;;;;19.70;100011.00;;;;2077657;28;20610;-51
2021/01/26 05:00:49;;;;;;;3.40;1.50;;;;;19.70;100012.00;;;;2061339;28;20710;-51
2021/01/26 05:02:03;;;;;;;4.22;1.75;;;;;19.70;100018.00;;;;2063597;28;20314;-51
2021/01/26 05:03:30;;;;;;;4.40;1.83;;;;;19.70;100017.00;;;;2077684;28;20253;-51
2021/01/26 05:04:32;;;;;;;3.22;2.05;;;;;19.60;100011.00;;;;2075882;28;20256;-52
2021/01/26 05:05:35;;;;;;;3.53;1.85;;;;;19.70;100025.00;;;;2062930;28;20221;-52
2021/01/26 05:07:19;;;;;;;4.28;2.35;;;;;19.60;100022.00;;;;2061891;28;20239;-52
2021/01/26 05:08:34;;;;;;;4.28;2.50;;;;;19.70;100021.00;;;;2073008;28;20225;-51
2021/01/26 05:09:58;;;;;;;2.92;1.83;;;;;19.70;100018.00;;;;2078022;28;21103;-51
2021/01/26 05:11:05;;;;;;;3.03;2.05;;;;;19.60;100020.00;;;;2033434;29;20278;-52
2021/01/26 05:12:07;;;;;;;4.97;2.78;;;;;19.60;100020.00;;;;2061606;28;20221;-50
2021/01/26 05:13:15;;;;;;;3.20;2.00;;;;;19.60;100029.00;;;;2066432;28;20306;-51
2021/01/26 05:14:32;;;;;;;2.67;1.75;;;;;19.60;100018.00;;;;2076722;28;20217;-51
2021/01/26 05:15:36;;;;;;;3.67;1.80;;;;;19.60;100026.00;;;;2078037;28;20206;-51
2021/01/26 05:16:39;;;;;;;3.50;2.30;;;;;19.60;100026.00;;;;2077551;28;20217;-51
2021/01/26 05:17:45;;;;;;;4.20;1.88;;;;;19.60;100025.00;;;;2077849;28;20235;-50
2021/01/26 05:18:56;;;;;;;3.45;2.00;;;;;19.60;100026.00;;;;2068617;28;20281;-51
2021/01/26 05:20:04;;;;;;;3.67;2.25;;;;;19.60;100028.00;;;;2066093;28;20223;-51
2021/01/26 05:21:09;;;;;;;3.90;2.00;;;;;19.60;100030.00;;;;2077671;28;20248;-51
2021/01/26 05:22:17;;;;;;;4.07;1.92;;;;;19.60;100031.00;;;;2077501;28;20271;-51
2021/01/26 05:23:19;;;;;;;3.10;1.75;;;;;19.60;100026.00;;;;2068172;28;20221;-51
2021/01/26 05:24:25;;;;;;;3.65;1.80;;;;;19.60;100034.00;;;;2069147;28;20219;-51
2021/01/26 05:25:25;;;;;;;2.53;1.70;;;;;19.60;100036.00;;;;2055311;28;20216;-51
2021/01/26 05:26:26;;;;;;;2.93;1.87;;;;;19.60;100043.00;;;;2065374;28;20223;-51
2021/01/26 05:27:26;;;;;;;4.20;1.70;;;;;19.60;100038.00;;;;2077479;28;20221;-52
2021/01/26 05:28:27;;;;;;;2.53;1.80;;;;;19.50;100039.00;;;;2077498;28;20217;-51
2021/01/26 05:29:28;;;;;;;5.10;2.20;;;;;19.50;100039.00;;;;2071568;28;20218;-51
2021/01/26 05:30:33;;;;;;;2.63;1.42;;;;;19.50;100042.00;;;;2077653;28;20229;-51